createdAt,value
2017-04-17T00:00:23.125Z,930.55
2017-04-17T00:00:51.367Z,930.54
2017-04-17T00:01:19.690Z,930.55
2017-04-17T00:01:47.795Z,930.52
2017-04-17T00:02:16.297Z,930.55
2017-04-17T00:02:44.564Z,930.54
2017-04-17T00:03:12.926Z,930.55
2017-04-17T00:03:41.204Z,930.57
2017-04-17T00:04:09.600Z,930.52
2017-04-17T00:04:37.829Z,930.53
2017-04-17T00:05:05.964Z,930.55
2017-04-17T00:05:34.262Z,930.52
2017-04-17T00:06:02.588Z,930.57
2017-04-17T00:06:31.022Z,930.56
2017-04-17T00:06:59.299Z,930.54
2017-04-17T00:07:28.100Z,930.57
2017-04-17T00:07:56.282Z,930.55
2017-04-17T00:08:24.689Z,930.55
2017-04-17T00:08:52.940Z,930.53
2017-04-17T00:09:21.084Z,930.54
2017-04-17T00:09:49.505Z,930.56
2017-04-17T00:10:17.843Z,930.57
2017-04-17T00:10:46.293Z,930.55
2017-04-17T00:11:14.645Z,930.54
2017-04-17T00:11:42.900Z,930.57
2017-04-17T00:12:11.341Z,930.56
2017-04-17T00:12:40.473Z,930.58
2017-04-17T00:13:08.920Z,930.58
2017-04-17T00:13:37.728Z,930.61
2017-04-17T00:14:06.083Z,930.65
2017-04-17T00:14:34.703Z,930.63
2017-04-17T00:15:02.919Z,930.67
2017-04-17T00:15:31.457Z,930.67
2017-04-17T00:15:59.715Z,930.67
2017-04-17T00:16:27.991Z,930.69
2017-04-17T00:16:56.391Z,930.69
2017-04-17T00:17:24.733Z,930.71
2017-04-17T00:17:53.211Z,930.7
2017-04-17T00:18:21.763Z,930.72
2017-04-17T00:18:50.214Z,930.66
2017-04-17T00:19:18.940Z,930.69
2017-04-17T00:19:47.117Z,930.68
2017-04-17T00:20:15.778Z,930.73
2017-04-17T00:20:44.011Z,930.72
2017-04-17T00:21:12.269Z,930.75
2017-04-17T00:21:40.362Z,930.73
2017-04-17T00:22:08.616Z,930.75
2017-04-17T00:22:37.039Z,930.76
2017-04-17T00:23:05.195Z,930.75
2017-04-17T00:23:33.599Z,930.78
2017-04-17T00:24:02.313Z,930.76
2017-04-17T00:24:30.620Z,930.76
2017-04-17T00:24:58.995Z,930.79
2017-04-17T00:25:27.124Z,930.8
2017-04-17T00:25:55.512Z,930.79
2017-04-17T00:26:23.754Z,930.77
2017-04-17T00:26:52.080Z,930.76
2017-04-17T00:27:20.592Z,930.78
2017-04-17T00:27:48.878Z,930.77
2017-04-17T00:28:17.178Z,930.75
2017-04-17T00:28:45.556Z,930.76
2017-04-17T00:29:14.923Z,930.79
2017-04-17T00:29:43.130Z,930.74
2017-04-17T00:30:11.836Z,930.76
2017-04-17T00:30:39.996Z,930.76
2017-04-17T00:31:08.127Z,930.74
2017-04-17T00:31:36.447Z,930.73
2017-04-17T00:32:04.636Z,930.75
2017-04-17T00:32:32.725Z,930.72
2017-04-17T00:33:01.138Z,930.73
2017-04-17T00:33:29.385Z,930.73
2017-04-17T00:33:57.517Z,930.75
2017-04-17T00:34:25.685Z,930.75
2017-04-17T00:34:54.006Z,930.73
2017-04-17T00:35:22.528Z,930.74
2017-04-17T00:35:51.083Z,930.74
2017-04-17T00:36:19.552Z,930.73
2017-04-17T00:36:47.999Z,930.74
2017-04-17T00:37:16.334Z,930.76
2017-04-17T00:37:44.460Z,930.75
2017-04-17T00:38:12.890Z,930.75
2017-04-17T00:38:41.193Z,930.73
2017-04-17T00:39:09.588Z,930.72
2017-04-17T00:39:37.881Z,930.7
2017-04-17T00:40:06.278Z,930.69
2017-04-17T00:40:34.445Z,930.68
2017-04-17T00:41:02.787Z,930.67
2017-04-17T00:41:31.356Z,930.69
2017-04-17T00:41:59.641Z,930.68
2017-04-17T00:42:27.893Z,930.66
2017-04-17T00:42:56.268Z,930.66
2017-04-17T00:43:24.550Z,930.7
2017-04-17T00:43:52.826Z,930.7
2017-04-17T00:44:21.495Z,930.72
2017-04-17T00:44:49.918Z,930.73
2017-04-17T00:45:18.266Z,930.66
2017-04-17T00:45:46.709Z,930.66
2017-04-17T00:46:15.036Z,930.73
2017-04-17T00:46:43.324Z,930.73
2017-04-17T00:47:11.699Z,930.73
2017-04-17T00:47:40.077Z,930.73
2017-04-17T00:48:08.551Z,930.76
2017-04-17T00:48:36.710Z,930.76
2017-04-17T00:49:05.090Z,930.74
2017-04-17T00:49:33.590Z,930.75
2017-04-17T00:50:01.847Z,930.73
2017-04-17T00:50:30.075Z,930.78
2017-04-17T00:50:58.426Z,930.81
2017-04-17T00:51:26.964Z,930.81
2017-04-17T00:51:55.191Z,930.81
2017-04-17T00:52:23.623Z,930.84
2017-04-17T00:52:51.904Z,930.85
2017-04-17T00:53:20.944Z,930.85
2017-04-17T00:53:49.080Z,930.84
2017-04-17T00:54:17.403Z,930.87
2017-04-17T00:54:46.416Z,930.86
2017-04-17T00:55:14.853Z,930.87
2017-04-17T00:55:43.235Z,930.91
2017-04-17T00:56:11.555Z,930.86
2017-04-17T00:56:39.805Z,930.9
2017-04-17T00:57:08.121Z,930.85
2017-04-17T00:57:36.473Z,930.88
2017-04-17T00:58:05.127Z,930.84
2017-04-17T00:58:33.399Z,930.82
2017-04-17T00:59:01.584Z,930.84
2017-04-17T00:59:29.867Z,930.84
2017-04-17T00:59:58.084Z,930.86
2017-04-17T01:00:26.248Z,930.83
2017-04-17T01:00:54.559Z,930.84
2017-04-17T01:01:23.125Z,930.83
2017-04-17T01:01:51.720Z,930.8
2017-04-17T01:02:19.989Z,930.85
2017-04-17T01:02:48.734Z,930.81
2017-04-17T01:03:16.933Z,930.85
2017-04-17T01:03:45.243Z,930.82
2017-04-17T01:04:14.509Z,930.8
2017-04-17T01:04:42.864Z,930.79
2017-04-17T01:05:11.309Z,930.8
2017-04-17T01:05:39.627Z,930.82
2017-04-17T01:06:08.450Z,930.84
2017-04-17T01:06:37.210Z,930.8
2017-04-17T01:07:05.647Z,930.82
2017-04-17T01:07:33.963Z,930.79
2017-04-17T01:08:02.256Z,930.8
2017-04-17T01:08:30.709Z,930.8
2017-04-17T01:08:59.114Z,930.77
2017-04-17T01:09:27.423Z,930.84
2017-04-17T01:09:55.962Z,930.85
2017-04-17T01:10:24.452Z,930.82
2017-04-17T01:10:52.721Z,930.81
2017-04-17T01:11:21.023Z,930.8
2017-04-17T01:11:49.360Z,930.83
2017-04-17T01:12:17.648Z,930.82
2017-04-17T01:12:46.061Z,930.81
2017-04-17T01:13:15.186Z,930.84
2017-04-17T01:13:43.573Z,930.86
2017-04-17T01:14:11.943Z,930.83
2017-04-17T01:14:40.668Z,930.88
2017-04-17T01:15:09.791Z,930.88
2017-04-17T01:15:38.990Z,930.83
2017-04-17T01:16:07.857Z,930.86
2017-04-17T01:16:36.593Z,930.87
2017-04-17T01:17:04.883Z,930.84
2017-04-17T01:17:33.315Z,930.84
2017-04-17T01:18:01.685Z,930.82
2017-04-17T01:18:30.468Z,930.86
2017-04-17T01:18:58.654Z,930.79
2017-04-17T01:19:26.983Z,930.81
2017-04-17T01:19:55.673Z,930.81
2017-04-17T01:20:23.823Z,930.82
2017-04-17T01:20:52.943Z,930.82
2017-04-17T01:21:21.711Z,930.85
2017-04-17T01:21:50.168Z,930.82
2017-04-17T01:22:19.203Z,930.82
2017-04-17T01:22:47.445Z,930.81
2017-04-17T01:23:15.661Z,930.81
2017-04-17T01:23:44.209Z,930.82
2017-04-17T01:24:12.588Z,930.79
2017-04-17T01:24:41.462Z,930.82
2017-04-17T01:25:09.722Z,930.78
2017-04-17T01:25:38.408Z,930.82
2017-04-17T01:26:06.511Z,930.84
2017-04-17T01:26:35.189Z,930.85
2017-04-17T01:27:03.904Z,930.86
2017-04-17T01:27:32.260Z,930.85
2017-04-17T01:28:00.779Z,930.85
2017-04-17T01:28:29.126Z,930.83
2017-04-17T01:28:57.931Z,930.84
2017-04-17T01:29:26.985Z,930.83
2017-04-17T01:29:55.085Z,930.82
2017-04-17T01:30:23.494Z,930.81
2017-04-17T01:30:52.252Z,930.86
2017-04-17T01:31:20.621Z,930.84
2017-04-17T01:31:49.392Z,930.84
2017-04-17T01:32:18.106Z,930.82
2017-04-17T01:32:46.466Z,930.89
2017-04-17T01:33:15.097Z,930.82
2017-04-17T01:33:43.713Z,930.88
2017-04-17T01:34:11.983Z,930.86
2017-04-17T01:34:40.321Z,930.89
2017-04-17T01:35:09.434Z,930.9
2017-04-17T01:35:38.061Z,930.87
2017-04-17T01:36:06.612Z,930.89
2017-04-17T01:36:35.117Z,930.88
2017-04-17T01:37:03.449Z,930.9
2017-04-17T01:37:31.578Z,930.89
2017-04-17T01:37:59.908Z,930.89
2017-04-17T01:38:28.198Z,930.86
2017-04-17T01:38:56.623Z,930.85
2017-04-17T01:39:24.923Z,930.85
2017-04-17T01:39:53.339Z,930.83
2017-04-17T01:40:21.597Z,930.82
2017-04-17T01:40:49.838Z,930.8
2017-04-17T01:41:18.090Z,930.84
2017-04-17T01:41:46.498Z,930.83
2017-04-17T01:42:14.787Z,930.83
2017-04-17T01:42:42.914Z,930.84
2017-04-17T01:43:11.277Z,930.83
2017-04-17T01:43:39.942Z,930.85
2017-04-17T01:44:08.287Z,930.83
2017-04-17T01:44:36.745Z,930.84
2017-04-17T01:45:05.131Z,930.82
2017-04-17T01:45:33.381Z,930.87
2017-04-17T01:46:01.684Z,930.86
2017-04-17T01:46:30.057Z,930.84
2017-04-17T01:46:58.126Z,930.89
2017-04-17T01:47:26.692Z,930.89
2017-04-17T01:47:54.775Z,930.91
2017-04-17T01:48:23.041Z,930.92
2017-04-17T01:48:51.555Z,930.95
2017-04-17T01:49:19.900Z,930.95
2017-04-17T01:49:48.245Z,931
2017-04-17T01:50:16.614Z,931.01
2017-04-17T01:50:44.731Z,930.96
2017-04-17T01:51:12.719Z,931.01
2017-04-17T01:51:41.105Z,930.99
2017-04-17T01:52:09.473Z,930.96
2017-04-17T01:52:37.474Z,930.98
2017-04-17T01:53:05.785Z,931
2017-04-17T01:53:34.026Z,930.96
2017-04-17T01:54:02.318Z,930.96
2017-04-17T01:54:30.771Z,930.93
2017-04-17T01:54:59.239Z,930.94
2017-04-17T01:55:27.613Z,930.94
2017-04-17T01:55:55.835Z,930.95
2017-04-17T01:56:24.531Z,930.95
2017-04-17T01:56:52.822Z,930.93
2017-04-17T01:57:21.085Z,930.94
2017-04-17T01:57:49.416Z,930.96
2017-04-17T01:58:17.820Z,930.94
2017-04-17T01:58:46.134Z,930.95
2017-04-17T01:59:14.404Z,930.94
2017-04-17T01:59:42.546Z,930.94
2017-04-17T02:00:10.849Z,930.95
2017-04-17T02:00:38.955Z,930.98
2017-04-17T02:01:07.476Z,930.98
2017-04-17T02:01:35.647Z,930.99
2017-04-17T02:02:03.966Z,931
2017-04-17T02:02:33.481Z,931.02
2017-04-17T02:03:01.655Z,931.02
2017-04-17T02:03:29.905Z,931.01
2017-04-17T02:03:58.282Z,931
2017-04-17T02:04:26.593Z,931.02
2017-04-17T02:04:54.858Z,931
2017-04-17T02:05:23.046Z,931
2017-04-17T02:05:51.657Z,931
2017-04-17T02:06:19.770Z,930.97
2017-04-17T02:06:48.006Z,930.99
2017-04-17T02:07:16.858Z,930.99
2017-04-17T02:07:45.297Z,930.99
2017-04-17T02:08:13.835Z,930.96
2017-04-17T02:08:42.025Z,930.98
2017-04-17T02:09:10.476Z,930.96
2017-04-17T02:09:38.936Z,931.01
2017-04-17T02:10:07.499Z,931.03
2017-04-17T02:10:35.732Z,931.01
2017-04-17T02:11:04.646Z,930.99
2017-04-17T02:11:32.969Z,930.98
2017-04-17T02:12:01.264Z,930.92
2017-04-17T02:12:29.449Z,930.95
2017-04-17T02:12:57.584Z,930.9
2017-04-17T02:13:25.955Z,930.9
2017-04-17T02:13:54.376Z,930.9
2017-04-17T02:14:22.638Z,930.86
2017-04-17T02:14:51.041Z,930.87
2017-04-17T02:15:19.472Z,930.81
2017-04-17T02:15:47.884Z,930.82
2017-04-17T02:16:17.061Z,930.83
2017-04-17T02:16:45.266Z,930.8
2017-04-17T02:17:13.635Z,930.84
2017-04-17T02:17:41.976Z,930.8
2017-04-17T02:18:10.365Z,930.83
2017-04-17T02:18:38.652Z,930.84
2017-04-17T02:19:07.265Z,930.83
2017-04-17T02:19:35.581Z,930.8
2017-04-17T02:20:04.132Z,930.83
2017-04-17T02:20:32.467Z,930.84
2017-04-17T02:21:00.787Z,930.8
2017-04-17T02:21:29.444Z,930.78
2017-04-17T02:21:57.997Z,930.74
2017-04-17T02:22:26.296Z,930.72
2017-04-17T02:22:54.576Z,930.71
2017-04-17T02:23:22.827Z,930.69
2017-04-17T02:23:51.018Z,930.68
2017-04-17T02:24:19.303Z,930.7
2017-04-17T02:24:47.439Z,930.66
2017-04-17T02:25:15.929Z,930.7
2017-04-17T02:25:44.282Z,930.67
2017-04-17T02:26:12.597Z,930.67
2017-04-17T02:26:40.808Z,930.68
2017-04-17T02:27:09.168Z,930.65
2017-04-17T02:27:37.510Z,930.66
2017-04-17T02:28:05.680Z,930.67
2017-04-17T02:28:33.920Z,930.68
2017-04-17T02:29:02.345Z,930.69
2017-04-17T02:29:30.553Z,930.68
2017-04-17T02:29:58.997Z,930.71
2017-04-17T02:30:27.376Z,930.68
2017-04-17T02:30:55.954Z,930.71
2017-04-17T02:31:24.188Z,930.71
2017-04-17T02:31:52.352Z,930.75
2017-04-17T02:32:20.693Z,930.78
2017-04-17T02:32:49.036Z,930.76
2017-04-17T02:33:17.390Z,930.77
2017-04-17T02:33:45.754Z,930.73
2017-04-17T02:34:14.130Z,930.76
2017-04-17T02:34:42.511Z,930.75
2017-04-17T02:35:10.728Z,930.76
2017-04-17T02:35:39.023Z,930.73
2017-04-17T02:36:07.328Z,930.73
2017-04-17T02:36:35.590Z,930.69
2017-04-17T02:37:03.860Z,930.71
2017-04-17T02:37:32.018Z,930.67
2017-04-17T02:38:00.233Z,930.71
2017-04-17T02:38:28.585Z,930.71
2017-04-17T02:38:56.806Z,930.69
2017-04-17T02:39:25.083Z,930.65
2017-04-17T02:39:53.133Z,930.68
2017-04-17T02:40:21.332Z,930.63
2017-04-17T02:40:49.654Z,930.68
2017-04-17T02:41:18.003Z,930.73
2017-04-17T02:41:46.222Z,930.71
2017-04-17T02:42:14.666Z,930.7
2017-04-17T02:42:43.040Z,930.66
2017-04-17T02:43:11.265Z,930.68
2017-04-17T02:43:39.497Z,930.68
2017-04-17T02:44:07.727Z,930.67
2017-04-17T02:44:35.954Z,930.66
2017-04-17T02:45:04.288Z,930.64
2017-04-17T02:45:32.496Z,930.69
2017-04-17T02:46:00.881Z,930.69
2017-04-17T02:46:29.117Z,930.69
2017-04-17T02:46:57.368Z,930.69
2017-04-17T02:47:25.746Z,930.7
2017-04-17T02:47:54.257Z,930.71
2017-04-17T02:48:22.686Z,930.65
2017-04-17T02:48:50.842Z,930.63
2017-04-17T02:49:19.134Z,930.64
2017-04-17T02:49:47.190Z,930.68
2017-04-17T02:50:15.591Z,930.67
2017-04-17T02:50:44.635Z,930.68
2017-04-17T02:51:13.117Z,930.69
2017-04-17T02:51:41.523Z,930.68
2017-04-17T02:52:09.954Z,930.66
2017-04-17T02:52:38.141Z,930.68
2017-04-17T02:53:06.625Z,930.69
2017-04-17T02:53:35.063Z,930.66
2017-04-17T02:54:03.547Z,930.68
2017-04-17T02:54:31.717Z,930.7
2017-04-17T02:55:00.031Z,930.68
2017-04-17T02:55:28.198Z,930.65
2017-04-17T02:55:56.308Z,930.66
2017-04-17T02:56:24.738Z,930.65
2017-04-17T02:56:53.069Z,930.65
2017-04-17T02:57:21.331Z,930.63
2017-04-17T02:57:49.559Z,930.65
2017-04-17T02:58:17.946Z,930.64
2017-04-17T02:58:46.373Z,930.64
2017-04-17T02:59:14.724Z,930.64
2017-04-17T02:59:43.103Z,930.63
2017-04-17T03:00:11.562Z,930.64
2017-04-17T03:00:39.728Z,930.65
2017-04-17T03:01:08.107Z,930.62
2017-04-17T03:01:36.326Z,930.61
2017-04-17T03:02:04.658Z,930.61
2017-04-17T03:02:32.705Z,930.61
2017-04-17T03:03:00.979Z,930.58
2017-04-17T03:03:29.391Z,930.59
2017-04-17T03:03:57.645Z,930.58
2017-04-17T03:04:25.818Z,930.58
2017-04-17T03:04:54.140Z,930.56
2017-04-17T03:05:22.392Z,930.56
2017-04-17T03:05:50.583Z,930.54
2017-04-17T03:06:18.986Z,930.54
2017-04-17T03:06:47.336Z,930.53
2017-04-17T03:07:15.645Z,930.51
2017-04-17T03:07:44.034Z,930.53
2017-04-17T03:08:12.368Z,930.56
2017-04-17T03:08:40.653Z,930.55
2017-04-17T03:09:08.915Z,930.52
2017-04-17T03:09:37.247Z,930.53
2017-04-17T03:10:05.608Z,930.51
2017-04-17T03:10:34.085Z,930.49
2017-04-17T03:11:03.304Z,930.51
2017-04-17T03:11:31.643Z,930.54
2017-04-17T03:11:59.771Z,930.52
2017-04-17T03:12:27.985Z,930.48
2017-04-17T03:12:56.272Z,930.53
2017-04-17T03:13:24.592Z,930.51
2017-04-17T03:13:52.714Z,930.55
2017-04-17T03:14:21.053Z,930.56
2017-04-17T03:14:49.590Z,930.58
2017-04-17T03:15:17.907Z,930.6
2017-04-17T03:15:46.092Z,930.6
2017-04-17T03:16:14.367Z,930.64
2017-04-17T03:16:42.557Z,930.61
2017-04-17T03:17:10.980Z,930.62
2017-04-17T03:17:39.375Z,930.64
2017-04-17T03:18:07.726Z,930.6
2017-04-17T03:18:36.070Z,930.62
2017-04-17T03:19:04.281Z,930.64
2017-04-17T03:19:32.603Z,930.61
2017-04-17T03:20:00.987Z,930.63
2017-04-17T03:20:29.244Z,930.63
2017-04-17T03:20:57.472Z,930.61
2017-04-17T03:21:25.745Z,930.64
2017-04-17T03:21:54.152Z,930.63
2017-04-17T03:22:22.155Z,930.61
2017-04-17T03:22:50.444Z,930.59
2017-04-17T03:23:18.601Z,930.64
2017-04-17T03:23:46.748Z,930.64
2017-04-17T03:24:14.971Z,930.65
2017-04-17T03:24:43.291Z,930.66
2017-04-17T03:25:11.530Z,930.65
2017-04-17T03:25:40.141Z,930.63
2017-04-17T03:26:08.371Z,930.64
2017-04-17T03:26:36.673Z,930.65
2017-04-17T03:27:04.766Z,930.66
2017-04-17T03:27:33.059Z,930.68
2017-04-17T03:28:01.385Z,930.65
2017-04-17T03:28:29.666Z,930.65
2017-04-17T03:28:58.002Z,930.67
2017-04-17T03:29:26.392Z,930.61
2017-04-17T03:29:54.583Z,930.62
2017-04-17T03:30:22.822Z,930.58
2017-04-17T03:30:51.003Z,930.58
2017-04-17T03:31:19.470Z,930.58
2017-04-17T03:31:47.802Z,930.56
2017-04-17T03:32:15.994Z,930.55
2017-04-17T03:32:44.182Z,930.56
2017-04-17T03:33:12.445Z,930.53
2017-04-17T03:33:40.768Z,930.56
2017-04-17T03:34:09.059Z,930.56
2017-04-17T03:34:37.440Z,930.55
2017-04-17T03:35:05.871Z,930.54
2017-04-17T03:35:34.233Z,930.54
2017-04-17T03:36:02.570Z,930.52
2017-04-17T03:36:30.681Z,930.53
2017-04-17T03:36:58.868Z,930.54
2017-04-17T03:37:27.048Z,930.54
2017-04-17T03:37:55.362Z,930.55
2017-04-17T03:38:23.679Z,930.59
2017-04-17T03:38:51.734Z,930.56
2017-04-17T03:39:20.041Z,930.59
2017-04-17T03:39:48.458Z,930.6
2017-04-17T03:40:16.662Z,930.61
2017-04-17T03:40:44.748Z,930.61
2017-04-17T03:41:13.226Z,930.6
2017-04-17T03:41:41.927Z,930.59
2017-04-17T03:42:10.110Z,930.6
2017-04-17T03:42:38.322Z,930.6
2017-04-17T03:43:06.454Z,930.58
2017-04-17T03:43:34.743Z,930.62
2017-04-17T03:44:03.015Z,930.6
2017-04-17T03:44:32.060Z,930.58
2017-04-17T03:45:00.144Z,930.56
2017-04-17T03:45:28.459Z,930.61
2017-04-17T03:45:56.686Z,930.57
2017-04-17T03:46:25.159Z,930.5
2017-04-17T03:46:53.489Z,930.55
2017-04-17T03:47:21.706Z,930.56
2017-04-17T03:47:49.786Z,930.56
2017-04-17T03:48:18.012Z,930.54
2017-04-17T03:48:46.201Z,930.53
2017-04-17T03:49:14.418Z,930.51
2017-04-17T03:49:42.658Z,930.55
2017-04-17T03:50:11.211Z,930.54
2017-04-17T03:50:39.472Z,930.52
2017-04-17T03:51:07.646Z,930.53
2017-04-17T03:51:35.968Z,930.49
2017-04-17T03:52:04.104Z,930.48
2017-04-17T03:52:32.396Z,930.48
2017-04-17T03:53:00.575Z,930.44
2017-04-17T03:53:28.922Z,930.45
2017-04-17T03:53:57.123Z,930.44
2017-04-17T03:54:25.321Z,930.47
2017-04-17T03:54:53.642Z,930.41
2017-04-17T03:55:21.893Z,930.4
2017-04-17T03:55:50.177Z,930.44
2017-04-17T03:56:18.662Z,930.45
2017-04-17T03:56:46.871Z,930.43
2017-04-17T03:57:14.928Z,930.43
2017-04-17T03:57:43.232Z,930.49
2017-04-17T03:58:11.575Z,930.45
2017-04-17T03:58:39.769Z,930.43
2017-04-17T03:59:07.920Z,930.4
2017-04-17T03:59:36.174Z,930.4
2017-04-17T04:00:04.480Z,930.4
2017-04-17T04:00:32.800Z,930.38
2017-04-17T04:01:01.031Z,930.34
2017-04-17T04:01:29.470Z,930.41
2017-04-17T04:01:57.661Z,930.37
2017-04-17T04:02:25.862Z,930.36
2017-04-17T04:02:54.085Z,930.37
2017-04-17T04:03:23.035Z,930.4
2017-04-17T04:03:51.245Z,930.39
2017-04-17T04:04:19.572Z,930.42
2017-04-17T04:04:47.727Z,930.42
2017-04-17T04:05:16.074Z,930.39
2017-04-17T04:05:44.355Z,930.37
2017-04-17T04:06:12.616Z,930.37
2017-04-17T04:06:40.954Z,930.35
2017-04-17T04:07:09.201Z,930.34
2017-04-17T04:07:37.443Z,930.27
2017-04-17T04:08:05.681Z,930.33
2017-04-17T04:08:34.009Z,930.28
2017-04-17T04:09:02.273Z,930.31
2017-04-17T04:09:30.534Z,930.31
2017-04-17T04:09:58.658Z,930.35
2017-04-17T04:10:26.953Z,930.32
2017-04-17T04:10:55.159Z,930.32
2017-04-17T04:11:23.348Z,930.34
2017-04-17T04:11:51.451Z,930.34
2017-04-17T04:12:19.644Z,930.34
2017-04-17T04:12:47.842Z,930.34
2017-04-17T04:13:16.004Z,930.32
2017-04-17T04:13:44.238Z,930.34
2017-04-17T04:14:12.521Z,930.31
2017-04-17T04:14:40.688Z,930.31
2017-04-17T04:15:08.848Z,930.28
2017-04-17T04:15:37.021Z,930.25
2017-04-17T04:16:05.195Z,930.3
2017-04-17T04:16:33.390Z,930.29
2017-04-17T04:17:01.623Z,930.28
2017-04-17T04:17:29.740Z,930.29
2017-04-17T04:17:57.993Z,930.31
2017-04-17T04:18:26.326Z,930.28
2017-04-17T04:18:54.630Z,930.26
2017-04-17T04:19:22.887Z,930.29
2017-04-17T04:19:51.063Z,930.31
2017-04-17T04:20:19.360Z,930.27
2017-04-17T04:20:47.434Z,930.28
2017-04-17T04:21:15.708Z,930.28
2017-04-17T04:21:44.142Z,930.29
2017-04-17T04:22:12.255Z,930.26
2017-04-17T04:22:40.552Z,930.26
2017-04-17T04:23:08.728Z,930.26
2017-04-17T04:23:37.058Z,930.24
2017-04-17T04:24:05.224Z,930.25
2017-04-17T04:24:33.512Z,930.26
2017-04-17T04:25:01.699Z,930.25
2017-04-17T04:25:29.845Z,930.27
2017-04-17T04:25:57.951Z,930.26
2017-04-17T04:26:26.040Z,930.24
2017-04-17T04:26:54.508Z,930.24
2017-04-17T04:27:22.634Z,930.23
2017-04-17T04:27:50.893Z,930.23
2017-04-17T04:28:19.011Z,930.22
2017-04-17T04:28:47.236Z,930.22
2017-04-17T04:29:15.424Z,930.2
2017-04-17T04:29:43.700Z,930.2
2017-04-17T04:30:11.707Z,930.18
2017-04-17T04:30:39.950Z,930.16
2017-04-17T04:31:08.143Z,930.15
2017-04-17T04:31:36.279Z,930.11
2017-04-17T04:32:04.759Z,930.09
2017-04-17T04:32:32.767Z,930.08
2017-04-17T04:33:00.954Z,930.07
2017-04-17T04:33:29.137Z,930.11
2017-04-17T04:33:57.441Z,930.07
2017-04-17T04:34:25.676Z,930.09
2017-04-17T04:34:53.966Z,930.08
2017-04-17T04:35:22.035Z,930.08
2017-04-17T04:35:50.267Z,930.08
2017-04-17T04:36:18.551Z,930.08
2017-04-17T04:36:47.003Z,930.11
2017-04-17T04:37:15.198Z,930.08
2017-04-17T04:37:43.500Z,930.08
2017-04-17T04:38:11.610Z,930.08
2017-04-17T04:38:39.788Z,930.11
2017-04-17T04:39:07.969Z,930.09
2017-04-17T04:39:36.284Z,930.08
2017-04-17T04:40:05.418Z,930.06
2017-04-17T04:40:33.693Z,930.07
2017-04-17T04:41:01.906Z,930.09
2017-04-17T04:41:30.024Z,930.06
2017-04-17T04:41:58.422Z,930.09
2017-04-17T04:42:26.906Z,930.08
2017-04-17T04:42:55.286Z,930.1
2017-04-17T04:43:23.593Z,930.11
2017-04-17T04:43:51.782Z,930.09
2017-04-17T04:44:20.074Z,930.11
2017-04-17T04:44:48.287Z,930.08
2017-04-17T04:45:16.319Z,930.08
2017-04-17T04:45:44.443Z,930.05
2017-04-17T04:46:12.578Z,930.1
2017-04-17T04:46:40.678Z,930.06
2017-04-17T04:47:09.038Z,930.09
2017-04-17T04:47:37.212Z,930.09
2017-04-17T04:48:05.451Z,930.09
2017-04-17T04:48:33.836Z,930.1
2017-04-17T04:49:01.873Z,930.11
2017-04-17T04:49:30.326Z,930.12
2017-04-17T04:49:58.590Z,930.17
2017-04-17T04:50:26.792Z,930.17
2017-04-17T04:50:54.939Z,930.19
2017-04-17T04:51:23.001Z,930.19
2017-04-17T04:51:51.472Z,930.19
2017-04-17T04:52:19.624Z,930.2
2017-04-17T04:52:47.980Z,930.18
2017-04-17T04:53:16.120Z,930.2
2017-04-17T04:53:44.438Z,930.19
2017-04-17T04:54:12.681Z,930.19
2017-04-17T04:54:40.976Z,930.19
2017-04-17T04:55:09.115Z,930.16
2017-04-17T04:55:37.368Z,930.18
2017-04-17T04:56:05.490Z,930.17
2017-04-17T04:56:33.660Z,930.17
2017-04-17T04:57:02.190Z,930.15
2017-04-17T04:57:30.429Z,930.2
2017-04-17T04:57:58.600Z,930.14
2017-04-17T04:58:26.845Z,930.13
2017-04-17T04:58:55.162Z,930.15
2017-04-17T04:59:23.350Z,930.13
2017-04-17T04:59:51.734Z,930.12
2017-04-17T05:00:20.016Z,930.14
2017-04-17T05:00:48.346Z,930.11
2017-04-17T05:01:16.526Z,930.09
2017-04-17T05:01:44.786Z,930.11
2017-04-17T05:02:12.892Z,930.12
2017-04-17T05:02:41.029Z,930.11
2017-04-17T05:03:09.154Z,930.13
2017-04-17T05:03:37.350Z,930.12
2017-04-17T05:04:05.531Z,930.09
2017-04-17T05:04:33.649Z,930.09
2017-04-17T05:05:01.858Z,930.1
2017-04-17T05:05:29.945Z,930.04
2017-04-17T05:05:58.216Z,930.07
2017-04-17T05:06:26.455Z,930.09
2017-04-17T05:06:54.548Z,930.07
2017-04-17T05:07:22.955Z,930.08
2017-04-17T05:07:51.138Z,930.06
2017-04-17T05:08:19.408Z,930.05
2017-04-17T05:08:47.636Z,930.07
2017-04-17T05:09:15.903Z,930.05
2017-04-17T05:09:44.058Z,930.08
2017-04-17T05:10:12.364Z,930.08
2017-04-17T05:10:40.476Z,930.07
2017-04-17T05:11:08.512Z,930.09
2017-04-17T05:11:36.758Z,930.09
2017-04-17T05:12:05.046Z,930.07
2017-04-17T05:12:33.327Z,930.1
2017-04-17T05:13:01.557Z,930.12
2017-04-17T05:13:29.783Z,930.07
2017-04-17T05:13:57.903Z,930.08
2017-04-17T05:14:26.187Z,930.07
2017-04-17T05:14:54.389Z,930.09
2017-04-17T05:15:22.652Z,930.09
2017-04-17T05:15:50.922Z,930.07
2017-04-17T05:16:19.137Z,930.11
2017-04-17T05:16:47.335Z,930.06
2017-04-17T05:17:15.793Z,930.09
2017-04-17T05:17:44.061Z,930.06
2017-04-17T05:18:12.306Z,930.08
2017-04-17T05:18:40.408Z,930.02
2017-04-17T05:19:08.733Z,930.06
2017-04-17T05:19:36.918Z,930.03
2017-04-17T05:20:05.002Z,930.04
2017-04-17T05:20:33.314Z,930.03
2017-04-17T05:21:01.497Z,930.01
2017-04-17T05:21:29.680Z,930.02
2017-04-17T05:21:57.860Z,929.99
2017-04-17T05:22:26.186Z,930.03
2017-04-17T05:22:54.337Z,930.02
2017-04-17T05:23:22.608Z,930.02
2017-04-17T05:23:50.924Z,930.03
2017-04-17T05:24:19.036Z,930
2017-04-17T05:24:47.353Z,930.02
2017-04-17T05:25:15.620Z,930.01
2017-04-17T05:25:43.807Z,930.03
2017-04-17T05:26:11.999Z,930.01
2017-04-17T05:26:40.297Z,929.97
2017-04-17T05:27:08.474Z,929.99
2017-04-17T05:27:36.756Z,929.97
2017-04-17T05:28:04.987Z,929.96
2017-04-17T05:28:33.331Z,929.96
2017-04-17T05:29:01.546Z,929.97
2017-04-17T05:29:29.704Z,929.96
2017-04-17T05:29:57.878Z,929.93
2017-04-17T05:30:26.148Z,929.94
2017-04-17T05:30:54.340Z,929.94
2017-04-17T05:31:22.626Z,929.92
2017-04-17T05:31:50.928Z,929.96
2017-04-17T05:32:19.504Z,929.96
2017-04-17T05:32:47.768Z,929.91
2017-04-17T05:33:15.902Z,929.96
2017-04-17T05:33:44.188Z,929.94
2017-04-17T05:34:12.401Z,929.96
2017-04-17T05:34:40.666Z,929.97
2017-04-17T05:35:08.748Z,930.01
2017-04-17T05:35:37.051Z,929.97
2017-04-17T05:36:05.260Z,930.02
2017-04-17T05:36:33.467Z,929.98
2017-04-17T05:37:01.724Z,930.01
2017-04-17T05:37:30.022Z,930.03
2017-04-17T05:37:58.339Z,930
2017-04-17T05:38:26.622Z,930
2017-04-17T05:38:54.757Z,930.03
2017-04-17T05:39:22.848Z,930.03
2017-04-17T05:39:51.024Z,929.99
2017-04-17T05:40:19.310Z,929.97
2017-04-17T05:40:47.562Z,930.02
2017-04-17T05:41:15.823Z,930.01
2017-04-17T05:41:43.951Z,930
2017-04-17T05:42:12.019Z,930.02
2017-04-17T05:42:40.187Z,930.02
2017-04-17T05:43:08.372Z,930.02
2017-04-17T05:43:36.622Z,930.02
2017-04-17T05:44:04.906Z,930.01
2017-04-17T05:44:33.077Z,929.99
2017-04-17T05:45:01.333Z,930
2017-04-17T05:45:29.501Z,930.01
2017-04-17T05:45:57.725Z,929.98
2017-04-17T05:46:25.922Z,929.97
2017-04-17T05:46:53.906Z,929.97
2017-04-17T05:47:22.140Z,929.96
2017-04-17T05:47:50.505Z,929.96
2017-04-17T05:48:18.702Z,929.95
2017-04-17T05:48:46.819Z,929.97
2017-04-17T05:49:14.819Z,929.95
2017-04-17T05:49:43.171Z,929.94
2017-04-17T05:50:11.463Z,929.94
2017-04-17T05:50:39.613Z,929.93
2017-04-17T05:51:07.905Z,929.9
2017-04-17T05:51:36.143Z,929.93
2017-04-17T05:52:04.170Z,929.92
2017-04-17T05:52:32.565Z,929.92
2017-04-17T05:53:00.700Z,929.93
2017-04-17T05:53:28.900Z,929.91
2017-04-17T05:53:57.158Z,929.92
2017-04-17T05:54:25.360Z,929.92
2017-04-17T05:54:53.558Z,929.91